Time;durP1;ratioP1;P1;durP2;ratioP2;P2;SDS_P1;SDS_P2;PMS_P1;PMS_P2;Temp;Humidity;BMP_temperature;BMP_pressure;BME280_temperature;BME280_humidity;BME280_pressure;Samples;Min_cycle;Max_cycle;Signal;HPM_P1;HPM_P2
2024/02/23 00:00:12;;;;;;;;;0.00;0.00;;;;;;;;5079541;27;45405;-75
2024/02/23 00:02:37;;;;;;;;;1.33;1.00;;;;;;;;5078346;28;48463;-75
2024/02/23 00:05:02;;;;;;;;;0.00;0.00;;;;;;;;5079395;27;45148;-76
2024/02/23 00:07:27;;;;;;;;;0.00;0.00;;;;;;;;5079947;28;45296;-77
2024/02/23 00:09:53;;;;;;;;;1.00;0.00;;;;;;;;5070853;28;46904;-75
2024/02/23 00:12:18;;;;;;;;;0.00;0.00;;;;;;;;5059177;28;46532;-76
2024/02/23 00:14:43;;;;;;;;;1.67;1.00;;;;;;;;5057504;28;45325;-76
2024/02/23 00:17:08;;;;;;;;;1.33;0.00;;;;;;;;5059269;28;45272;-76
2024/02/23 00:19:34;;;;;;;;;1.00;1.00;;;;;;;;5059167;28;45413;-76
2024/02/23 00:21:59;;;;;;;;;0.67;0.67;;;;;;;;5058944;28;45368;-75
2024/02/23 00:24:25;;;;;;;;;1.67;1.67;;;;;;;;5059183;28;45321;-76
2024/02/23 00:26:51;;;;;;;;;1.00;0.00;;;;;;;;5057912;28;45440;-75
2024/02/23 00:29:16;;;;;;;;;1.00;1.00;;;;;;;;5057822;28;46214;-74
2024/02/23 00:31:42;;;;;;;;;1.00;1.00;;;;;;;;5057518;28;48497;-77
2024/02/23 00:34:12;;;;;;;;;2.00;0.67;;;;;;;;5057776;28;45473;-75
2024/02/23 00:36:38;;;;;;;;;0.00;0.00;;;;;;;;5062815;28;45157;-75
2024/02/23 00:39:04;;;;;;;;;1.33;0.33;;;;;;;;5062421;28;45338;-75
2024/02/23 00:41:29;;;;;;;;;1.00;1.00;;;;;;;;5062432;28;45569;-76
2024/02/23 00:43:54;;;;;;;;;0.67;0.67;;;;;;;;5061066;28;45347;-75
2024/02/23 00:46:19;;;;;;;;;1.00;1.00;;;;;;;;5062291;28;45358;-75
2024/02/23 00:48:45;;;;;;;;;0.67;0.67;;;;;;;;5062223;28;45332;-74
2024/02/23 00:51:10;;;;;;;;;1.00;1.00;;;;;;;;5062315;28;46142;-76
2024/02/23 00:53:35;;;;;;;;;4.00;2.00;;;;;;;;5062250;28;45411;-75
2024/02/23 00:56:00;;;;;;;;;4.00;1.00;;;;;;;;5062512;28;45284;-75
2024/02/23 00:58:28;;;;;;;;;0.67;0.00;;;;;;;;5079046;28;45370;-76
2024/02/23 01:00:53;;;;;;;;;0.67;0.67;;;;;;;;5081074;28;48429;-76
2024/02/23 01:03:18;;;;;;;;;2.00;1.00;;;;;;;;5080872;28;45269;-75
2024/02/23 01:05:44;;;;;;;;;0.00;0.00;;;;;;;;5082410;27;45480;-76
2024/02/23 01:08:09;;;;;;;;;0.33;0.33;;;;;;;;5082488;27;45266;-75
2024/02/23 01:10:34;;;;;;;;;1.00;0.00;;;;;;;;5082341;27;45480;-76
2024/02/23 01:13:00;;;;;;;;;0.33;0.33;;;;;;;;5080890;28;45256;-76
2024/02/23 01:15:25;;;;;;;;;0.33;0.33;;;;;;;;5082262;28;45283;-76
2024/02/23 01:17:50;;;;;;;;;0.00;0.00;;;;;;;;5080149;28;45321;-76
2024/02/23 01:20:15;;;;;;;;;1.33;1.33;;;;;;;;5082114;28;45278;-75
2024/02/23 01:22:40;;;;;;;;;0.00;0.00;;;;;;;;5082092;27;45302;-75
2024/02/23 01:25:06;;;;;;;;;2.00;0.33;;;;;;;;5080847;28;45231;-76
2024/02/23 01:27:31;;;;;;;;;1.33;1.33;;;;;;;;5080519;28;46357;-76
2024/02/23 01:29:56;;;;;;;;;2.00;1.00;;;;;;;;5081995;27;45260;-76
2024/02/23 01:32:22;;;;;;;;;1.00;1.00;;;;;;;;5080725;28;45907;-75
2024/02/23 01:34:47;;;;;;;;;0.00;0.00;;;;;;;;5077114;28;45546;-76
2024/02/23 01:37:12;;;;;;;;;2.33;1.00;;;;;;;;5061738;28;45409;-76
2024/02/23 01:39:37;;;;;;;;;3.00;1.00;;;;;;;;5061523;28;45358;-75
2024/02/23 01:42:02;;;;;;;;;1.00;1.00;;;;;;;;5061637;28;45221;-75
2024/02/23 01:44:28;;;;;;;;;4.00;1.33;;;;;;;;5061904;28;45249;-75
2024/02/23 01:46:53;;;;;;;;;0.33;0.00;;;;;;;;5060600;28;45578;-76
2024/02/23 01:49:19;;;;;;;;;1.00;1.00;;;;;;;;5061317;28;46711;-75
2024/02/23 01:51:45;;;;;;;;;0.00;0.00;;;;;;;;5059957;28;45394;-76
2024/02/23 01:54:10;;;;;;;;;2.00;0.00;;;;;;;;5059806;28;45394;-75
2024/02/23 01:56:36;;;;;;;;;0.00;0.00;;;;;;;;5062898;28;45518;-75
2024/02/23 01:59:03;;;;;;;;;1.00;1.00;;;;;;;;5080296;28;47625;-75
2024/02/23 02:01:28;;;;;;;;;1.00;1.00;;;;;;;;5081379;27;45362;-76
2024/02/23 02:03:54;;;;;;;;;0.00;0.00;;;;;;;;5080357;27;45735;-76
2024/02/23 02:06:19;;;;;;;;;1.00;1.00;;;;;;;;5079980;28;46545;-76
2024/02/23 02:08:45;;;;;;;;;1.00;1.00;;;;;;;;5081550;27;46438;-75
2024/02/23 02:11:10;;;;;;;;;1.00;1.00;;;;;;;;5081487;27;45339;-76
2024/02/23 02:13:35;;;;;;;;;1.00;1.00;;;;;;;;5079955;28;45238;-76
2024/02/23 02:16:01;;;;;;;;;2.00;1.00;;;;;;;;5064673;27;45263;-76
2024/02/23 02:18:27;;;;;;;;;2.00;1.00;;;;;;;;5060524;28;45311;-75
2024/02/23 02:20:55;;;;;;;;;0.33;0.33;;;;;;;;5060607;28;45205;-75
2024/02/23 02:23:20;;;;;;;;;1.33;1.33;;;;;;;;5059475;28;45358;-75
2024/02/23 02:25:51;;;;;;;;;0.00;0.00;;;;;;;;5060781;28;45293;-75
2024/02/23 02:28:17;;;;;;;;;0.00;0.00;;;;;;;;5060524;28;45342;-75
2024/02/23 02:30:42;;;;;;;;;1.00;1.00;;;;;;;;5060768;28;45280;-76
2024/02/23 02:33:07;;;;;;;;;1.33;1.00;;;;;;;;5059562;28;45409;-76
2024/02/23 02:35:33;;;;;;;;;1.00;1.00;;;;;;;;5060628;28;45522;-75
2024/02/23 02:37:58;;;;;;;;;0.00;0.00;;;;;;;;5059334;28;47180;-76
2024/02/23 02:40:23;;;;;;;;;1.00;1.00;;;;;;;;5059462;28;45311;-76
2024/02/23 02:42:48;;;;;;;;;0.00;0.00;;;;;;;;5060889;28;45212;-76
2024/02/23 02:45:13;;;;;;;;;0.00;0.00;;;;;;;;5060460;28;45507;-75
2024/02/23 02:47:38;;;;;;;;;0.33;0.33;;;;;;;;5060557;28;46139;-76
2024/02/23 02:50:06;;;;;;;;;0.00;0.00;;;;;;;;5060430;28;45339;-76
2024/02/23 02:52:32;;;;;;;;;1.00;0.67;;;;;;;;5060364;28;45366;-76
2024/02/23 02:54:57;;;;;;;;;1.00;1.00;;;;;;;;5060416;28;45367;-75
2024/02/23 02:57:22;;;;;;;;;0.67;0.67;;;;;;;;5066576;28;47335;-75
2024/02/23 02:59:49;;;;;;;;;0.00;0.00;;;;;;;;5080145;27;45252;-76
2024/02/23 03:02:15;;;;;;;;;0.00;0.00;;;;;;;;5080658;28;45294;-76
2024/02/23 03:04:46;;;;;;;;;0.00;0.00;;;;;;;;5080436;27;45239;-76
2024/02/23 03:07:11;;;;;;;;;0.33;0.33;;;;;;;;5080554;27;45405;-75
2024/02/23 03:09:36;;;;;;;;;0.33;0.33;;;;;;;;5079197;28;45344;-75
2024/02/23 03:12:01;;;;;;;;;1.00;0.33;;;;;;;;5080558;27;45307;-75
2024/02/23 03:14:27;;;;;;;;;1.00;1.00;;;;;;;;5080488;27;45298;-75
2024/02/23 03:16:52;;;;;;;;;1.33;0.00;;;;;;;;5078690;28;47319;-75
2024/02/23 03:19:22;;;;;;;;;0.00;0.00;;;;;;;;5080270;27;45345;-76
2024/02/23 03:21:47;;;;;;;;;0.00;0.00;;;;;;;;5080413;27;45401;-75
2024/02/23 03:24:12;;;;;;;;;0.00;0.00;;;;;;;;5078844;28;46342;-75
2024/02/23 03:26:37;;;;;;;;;0.00;0.00;;;;;;;;5078760;28;47543;-75
2024/02/23 03:29:02;;;;;;;;;0.00;0.00;;;;;;;;5080310;27;45316;-75
2024/02/23 03:31:28;;;;;;;;;0.67;0.67;;;;;;;;5080136;27;45310;-76
2024/02/23 03:33:53;;;;;;;;;0.00;0.00;;;;;;;;5078648;28;47113;-75
2024/02/23 03:36:18;;;;;;;;;2.67;1.67;;;;;;;;5080045;27;45450;-75
2024/02/23 03:38:43;;;;;;;;;0.00;0.00;;;;;;;;5080140;27;45362;-76
2024/02/23 03:41:08;;;;;;;;;0.00;0.00;;;;;;;;5079723;27;45449;-75
2024/02/23 03:43:34;;;;;;;;;0.00;0.00;;;;;;;;5077847;28;47414;-75
2024/02/23 03:45:59;;;;;;;;;0.00;0.00;;;;;;;;5079731;27;45378;-75
2024/02/23 03:48:25;;;;;;;;;0.00;0.00;;;;;;;;5079830;27;45354;-76
2024/02/23 03:50:50;;;;;;;;;1.00;0.67;;;;;;;;5080088;27;45515;-75
2024/02/23 03:53:15;;;;;;;;;0.00;0.00;;;;;;;;5074560;28;45952;-76
2024/02/23 03:55:40;;;;;;;;;2.00;1.33;;;;;;;;5059380;28;45407;-76
2024/02/23 03:58:06;;;;;;;;;2.00;1.00;;;;;;;;5073385;28;45263;-75
2024/02/23 04:00:31;;;;;;;;;0.00;0.00;;;;;;;;5079707;28;45377;-76
2024/02/23 04:02:56;;;;;;;;;1.00;0.00;;;;;;;;5078303;28;47217;-78
2024/02/23 04:05:21;;;;;;;;;1.00;1.00;;;;;;;;5079471;27;45311;-76
2024/02/23 04:07:46;;;;;;;;;1.00;1.00;;;;;;;;5079703;27;45329;-76
2024/02/23 04:10:16;;;;;;;;;0.00;0.00;;;;;;;;5081905;27;45440;-75
2024/02/23 04:12:41;;;;;;;;;0.00;0.00;;;;;;;;5083174;28;45281;-76
2024/02/23 04:15:06;;;;;;;;;2.00;1.00;;;;;;;;5082879;28;46399;-75
2024/02/23 04:17:31;;;;;;;;;1.00;1.00;;;;;;;;5081940;28;45260;-75
2024/02/23 04:19:56;;;;;;;;;1.33;0.33;;;;;;;;5083232;27;45441;-75
2024/02/23 04:22:22;;;;;;;;;1.00;0.00;;;;;;;;5083070;27;45533;-75
2024/02/23 04:24:47;;;;;;;;;1.00;1.00;;;;;;;;5083007;27;45383;-76
2024/02/23 04:27:12;;;;;;;;;3.00;1.00;;;;;;;;5081620;28;45318;-76
2024/02/23 04:29:37;;;;;;;;;1.67;0.00;;;;;;;;5083141;27;45375;-76
2024/02/23 04:32:02;;;;;;;;;0.33;0.00;;;;;;;;5082804;27;45458;-75
2024/02/23 04:34:28;;;;;;;;;1.00;1.00;;;;;;;;5081177;28;48005;-76
2024/02/23 04:36:53;;;;;;;;;1.00;1.00;;;;;;;;5082932;27;45223;-76
2024/02/23 04:39:19;;;;;;;;;0.00;0.00;;;;;;;;5083179;27;45896;-75
2024/02/23 04:41:44;;;;;;;;;0.00;0.00;;;;;;;;5082868;27;45303;-76
2024/02/23 04:44:09;;;;;;;;;0.67;0.00;;;;;;;;5082721;28;45315;-76
2024/02/23 04:46:34;;;;;;;;;0.33;0.33;;;;;;;;5082535;28;45433;-75
2024/02/23 04:49:00;;;;;;;;;1.00;1.00;;;;;;;;5082738;27;45315;-76
2024/02/23 04:51:26;;;;;;;;;1.00;1.00;;;;;;;;5081257;28;45866;-76
2024/02/23 04:53:51;;;;;;;;;1.00;1.00;;;;;;;;5064569;28;47271;-76
2024/02/23 04:56:16;;;;;;;;;0.00;0.00;;;;;;;;5061108;28;45288;-76
2024/02/23 04:58:42;;;;;;;;;1.33;0.00;;;;;;;;5081492;28;45337;-76
2024/02/23 05:01:07;;;;;;;;;1.00;1.00;;;;;;;;5082311;27;45316;-76
2024/02/23 05:03:33;;;;;;;;;0.67;0.67;;;;;;;;5082441;28;45255;-75
2024/02/23 05:05:58;;;;;;;;;1.00;0.33;;;;;;;;5081173;28;46165;-76
2024/02/23 05:08:24;;;;;;;;;1.00;1.00;;;;;;;;5082622;27;45317;-76
2024/02/23 05:10:49;;;;;;;;;1.00;0.00;;;;;;;;5082460;27;45719;-76
2024/02/23 05:13:14;;;;;;;;;0.33;0.33;;;;;;;;5082162;27;45378;-75
2024/02/23 05:15:40;;;;;;;;;0.00;0.00;;;;;;;;5082221;27;45282;-75
2024/02/23 05:18:05;;;;;;;;;0.33;0.00;;;;;;;;5082419;27;45180;-75
2024/02/23 05:20:30;;;;;;;;;0.00;0.00;;;;;;;;5081513;27;45650;-76
2024/02/23 05:22:56;;;;;;;;;0.67;0.00;;;;;;;;5081621;27;45561;-75
2024/02/23 05:25:21;;;;;;;;;2.00;1.33;;;;;;;;5082184;27;45346;-76
2024/02/23 05:27:46;;;;;;;;;1.00;1.00;;;;;;;;5080760;28;45529;-74
2024/02/23 05:30:12;;;;;;;;;0.67;0.00;;;;;;;;5080615;28;46193;-75
2024/02/23 05:32:37;;;;;;;;;1.00;0.00;;;;;;;;5075968;28;48525;-76
2024/02/23 05:35:03;;;;;;;;;0.00;0.00;;;;;;;;5061726;28;45394;-75
2024/02/23 05:37:28;;;;;;;;;2.00;1.00;;;;;;;;5060437;28;45369;-76
2024/02/23 05:39:53;;;;;;;;;0.67;0.67;;;;;;;;5060383;28;45276;-75
2024/02/23 05:42:19;;;;;;;;;2.00;0.67;;;;;;;;5060156;28;47080;-75
2024/02/23 05:44:44;;;;;;;;;1.00;1.00;;;;;;;;5061372;28;45350;-76
2024/02/23 05:47:10;;;;;;;;;1.00;1.00;;;;;;;;5060333;28;45343;-75
2024/02/23 05:49:35;;;;;;;;;0.00;0.00;;;;;;;;5061487;28;45281;-74
2024/02/23 05:52:00;;;;;;;;;2.67;2.33;;;;;;;;5061069;28;46046;-76
2024/02/23 05:54:28;;;;;;;;;0.67;0.00;;;;;;;;5060122;28;45381;-75
2024/02/23 05:56:53;;;;;;;;;0.00;0.00;;;;;;;;5065549;28;45323;-76
2024/02/23 05:59:19;;;;;;;;;1.00;0.00;;;;;;;;5081645;27;45485;-75
2024/02/23 06:01:44;;;;;;;;;1.00;1.00;;;;;;;;5079775;28;47515;-76
2024/02/23 06:04:09;;;;;;;;;1.00;1.00;;;;;;;;5081526;27;45200;-75
2024/02/23 06:06:34;;;;;;;;;0.00;0.00;;;;;;;;5080018;28;45378;-76
2024/02/23 06:09:00;;;;;;;;;2.00;1.00;;;;;;;;5081541;28;45253;-75
2024/02/23 06:11:28;;;;;;;;;2.33;2.00;;;;;;;;5081458;27;45300;-75
2024/02/23 06:13:53;;;;;;;;;0.00;0.00;;;;;;;;5080062;28;45357;-76
2024/02/23 06:16:18;;;;;;;;;1.00;1.00;;;;;;;;5081416;27;45239;-76
2024/02/23 06:18:44;;;;;;;;;1.00;1.00;;;;;;;;5081225;27;45376;-75
2024/02/23 06:21:13;;;;;;;;;1.00;1.00;;;;;;;;5081270;27;45419;-75
2024/02/23 06:23:39;;;;;;;;;0.00;0.00;;;;;;;;5081229;27;45372;-76
2024/02/23 06:26:04;;;;;;;;;2.00;1.67;;;;;;;;5081337;28;45237;-75
2024/02/23 06:28:30;;;;;;;;;0.00;0.00;;;;;;;;5080805;27;45329;-75
2024/02/23 06:30:55;;;;;;;;;1.00;1.00;;;;;;;;5068203;28;47359;-76
2024/02/23 06:33:20;;;;;;;;;0.00;0.00;;;;;;;;5059028;28;45275;-76
2024/02/23 06:35:46;;;;;;;;;0.00;0.00;;;;;;;;5060039;28;45461;-76
2024/02/23 06:38:11;;;;;;;;;2.00;1.00;;;;;;;;5059688;28;45675;-77
2024/02/23 06:40:36;;;;;;;;;0.33;0.33;;;;;;;;5060647;28;45334;-76
2024/02/23 06:43:01;;;;;;;;;0.00;0.00;;;;;;;;5060622;28;45315;-75
2024/02/23 06:45:26;;;;;;;;;1.00;1.00;;;;;;;;5060676;28;45440;-76
2024/02/23 06:47:52;;;;;;;;;0.00;0.00;;;;;;;;5059202;28;45951;-76
2024/02/23 06:50:17;;;;;;;;;2.00;0.00;;;;;;;;5060476;28;45161;-76
2024/02/23 06:52:42;;;;;;;;;1.00;1.00;;;;;;;;5060284;28;45383;-75
2024/02/23 06:55:09;;;;;;;;;1.67;1.67;;;;;;;;5060685;28;45267;-75
2024/02/23 06:57:34;;;;;;;;;0.33;0.00;;;;;;;;5068702;28;46030;-76
2024/02/23 07:00:00;;;;;;;;;0.67;0.67;;;;;;;;5078917;28;47136;-75
2024/02/23 07:02:31;;;;;;;;;1.00;1.00;;;;;;;;5080712;27;45376;-77
2024/02/23 07:04:56;;;;;;;;;0.00;0.00;;;;;;;;5080782;27;45301;-76
2024/02/23 07:07:21;;;;;;;;;0.33;0.00;;;;;;;;5080457;27;45413;-75
2024/02/23 07:09:47;;;;;;;;;1.00;1.00;;;;;;;;5080554;27;46279;-74
2024/02/23 07:12:13;;;;;;;;;1.67;1.67;;;;;;;;5079183;28;46222;-76
2024/02/23 07:14:38;;;;;;;;;2.00;1.00;;;;;;;;5080497;27;45219;-75
2024/02/23 07:17:03;;;;;;;;;1.00;1.00;;;;;;;;5078926;28;46337;-76
2024/02/23 07:19:29;;;;;;;;;0.00;0.00;;;;;;;;5080384;27;45231;-75
2024/02/23 07:21:54;;;;;;;;;1.00;1.00;;;;;;;;5080405;27;45345;-75
2024/02/23 07:24:19;;;;;;;;;0.33;0.00;;;;;;;;5080605;27;45452;-75
2024/02/23 07:26:45;;;;;;;;;1.00;1.00;;;;;;;;5080105;27;45469;-76
2024/02/23 07:29:10;;;;;;;;;2.00;1.00;;;;;;;;5078815;28;47330;-75
2024/02/23 07:31:35;;;;;;;;;4.00;0.67;;;;;;;;5078635;28;45361;-75
2024/02/23 07:34:00;;;;;;;;;1.00;1.00;;;;;;;;5080313;27;45378;-75
2024/02/23 07:36:26;;;;;;;;;1.00;1.00;;;;;;;;5078801;28;46390;-75
2024/02/23 07:38:51;;;;;;;;;1.00;1.00;;;;;;;;5080104;28;45239;-75
2024/02/23 07:41:19;;;;;;;;;0.33;0.33;;;;;;;;5080011;27;45337;-75
2024/02/23 07:43:44;;;;;;;;;2.00;2.00;;;;;;;;5079707;27;45280;-75
2024/02/23 07:46:10;;;;;;;;;1.33;1.33;;;;;;;;5079499;27;45307;-75
2024/02/23 07:48:36;;;;;;;;;2.00;1.00;;;;;;;;5057879;28;47053;-75
2024/02/23 07:51:02;;;;;;;;;2.00;1.00;;;;;;;;5058179;28;46257;-76
2024/02/23 07:53:27;;;;;;;;;1.00;1.00;;;;;;;;5058778;28;45477;-75
2024/02/23 07:55:52;;;;;;;;;2.00;1.00;;;;;;;;5059030;28;45408;-76
2024/02/23 07:58:17;;;;;;;;;1.00;1.00;;;;;;;;5058645;28;45523;-76
2024/02/23 08:00:43;;;;;;;;;4.33;2.00;;;;;;;;5059611;28;45433;-77
2024/02/23 08:03:10;;;;;;;;;2.00;2.00;;;;;;;;5052763;28;45354;-75
2024/02/23 08:05:35;;;;;;;;;2.00;1.67;;;;;;;;5037533;28;46081;-75
2024/02/23 08:08:00;;;;;;;;;3.00;1.00;;;;;;;;5043171;28;47414;-76
2024/02/23 08:10:28;;;;;;;;;3.00;2.00;;;;;;;;5058781;28;45438;-76
2024/02/23 08:12:53;;;;;;;;;1.00;1.00;;;;;;;;5057351;28;45260;-76
2024/02/23 08:15:18;;;;;;;;;2.00;2.00;;;;;;;;5056726;28;46185;-75
2024/02/23 08:17:44;;;;;;;;;3.33;1.67;;;;;;;;5055655;28;48194;-76
2024/02/23 08:20:09;;;;;;;;;0.33;0.33;;;;;;;;5059319;28;45803;-75
2024/02/23 08:22:34;;;;;;;;;1.00;1.00;;;;;;;;5058090;28;45347;-75
2024/02/23 08:24:59;;;;;;;;;1.33;0.33;;;;;;;;5057684;28;46293;-75
2024/02/23 08:27:25;;;;;;;;;1.00;1.00;;;;;;;;5058939;28;45411;-75
2024/02/23 08:29:50;;;;;;;;;0.67;0.00;;;;;;;;5057435;28;45142;-76
2024/02/23 08:32:17;;;;;;;;;0.33;0.33;;;;;;;;5058941;28;45524;-76
2024/02/23 08:34:42;;;;;;;;;1.00;1.00;;;;;;;;5058941;28;45300;-75
2024/02/23 08:37:07;;;;;;;;;0.00;0.00;;;;;;;;5059128;28;45710;-76
2024/02/23 08:39:34;;;;;;;;;2.00;1.00;;;;;;;;5058713;28;45366;-75
2024/02/23 08:41:59;;;;;;;;;3.00;2.00;;;;;;;;5058435;28;45266;-75
2024/02/23 08:44:24;;;;;;;;;1.00;1.00;;;;;;;;5058491;28;45354;-75
2024/02/23 08:46:49;;;;;;;;;2.00;2.00;;;;;;;;5057821;28;46391;-76
2024/02/23 08:49:14;;;;;;;;;3.00;3.00;;;;;;;;5058730;28;45319;-75
2024/02/23 08:51:40;;;;;;;;;2.00;2.00;;;;;;;;5058576;28;45322;-75
2024/02/23 08:54:06;;;;;;;;;2.33;2.33;;;;;;;;5058325;28;45353;-75
2024/02/23 08:56:36;;;;;;;;;4.00;4.00;;;;;;;;5060200;28;47236;-75
2024/02/23 08:59:01;;;;;;;;;5.33;5.33;;;;;;;;5075271;27;45246;-75
2024/02/23 09:01:26;;;;;;;;;1.67;1.00;;;;;;;;5058494;28;45220;-76
2024/02/23 09:03:51;;;;;;;;;3.00;1.67;;;;;;;;5060706;28;45567;-77
2024/02/23 09:06:17;;;;;;;;;2.00;2.00;;;;;;;;5063585;28;47411;-77
2024/02/23 09:08:42;;;;;;;;;5.00;4.00;;;;;;;;5060556;28;45939;-75
2024/02/23 09:11:07;;;;;;;;;4.00;2.00;;;;;;;;5059083;28;45290;-78
2024/02/23 09:13:32;;;;;;;;;3.00;3.00;;;;;;;;5057672;28;45760;-76
2024/02/23 09:15:57;;;;;;;;;3.00;1.67;;;;;;;;5060545;28;45323;-76
2024/02/23 09:18:22;;;;;;;;;3.33;3.33;;;;;;;;5061131;28;45292;-76
2024/02/23 09:20:48;;;;;;;;;7.67;5.00;;;;;;;;5059783;28;45439;-76
2024/02/23 09:23:13;;;;;;;;;4.00;4.00;;;;;;;;5074643;28;45283;-77
2024/02/23 09:25:39;;;;;;;;;5.00;5.00;;;;;;;;5061280;28;45346;-76
2024/02/23 09:28:04;;;;;;;;;4.00;2.00;;;;;;;;5060045;28;45205;-75
2024/02/23 09:30:29;;;;;;;;;5.00;3.33;;;;;;;;5059783;28;45521;-74
2024/02/23 09:32:54;;;;;;;;;2.00;2.00;;;;;;;;5060091;28;45458;-75
2024/02/23 09:35:20;;;;;;;;;3.00;2.00;;;;;;;;5061204;28;46124;-75
2024/02/23 09:37:45;;;;;;;;;1.00;1.00;;;;;;;;5061387;28;45317;-75
2024/02/23 09:40:10;;;;;;;;;1.00;1.00;;;;;;;;5061468;28;45303;-75
2024/02/23 09:42:38;;;;;;;;;1.00;1.00;;;;;;;;5060425;28;45350;-75
2024/02/23 09:45:04;;;;;;;;;2.00;2.00;;;;;;;;5060569;28;45936;-75
2024/02/23 09:47:31;;;;;;;;;1.00;1.00;;;;;;;;5059215;28;45240;-77
2024/02/23 09:49:56;;;;;;;;;3.00;1.00;;;;;;;;5058237;28;45335;-76
2024/02/23 09:52:22;;;;;;;;;1.00;1.00;;;;;;;;5059692;28;45369;-76
2024/02/23 09:54:48;;;;;;;;;3.67;2.00;;;;;;;;5059097;28;47319;-75
2024/02/23 09:57:14;;;;;;;;;1.00;1.00;;;;;;;;5067720;28;45303;-76
2024/02/23 09:59:39;;;;;;;;;2.67;1.67;;;;;;;;5059872;28;45395;-75
2024/02/23 10:02:08;;;;;;;;;2.67;1.33;;;;;;;;5060802;28;45475;-75
2024/02/23 10:04:33;;;;;;;;;3.00;2.67;;;;;;;;5060526;28;46306;-75
2024/02/23 10:06:58;;;;;;;;;1.00;1.00;;;;;;;;5059066;28;45409;-76
2024/02/23 10:09:23;;;;;;;;;2.00;1.00;;;;;;;;5059888;28;45414;-75
2024/02/23 10:11:53;;;;;;;;;1.00;1.00;;;;;;;;5060944;28;45284;-76
2024/02/23 10:14:18;;;;;;;;;3.33;1.67;;;;;;;;5060954;28;45246;-75
2024/02/23 10:16:43;;;;;;;;;3.00;1.00;;;;;;;;5060285;28;45327;-75
2024/02/23 10:19:08;;;;;;;;;3.67;2.33;;;;;;;;5059891;28;45180;-76
2024/02/23 10:21:34;;;;;;;;;4.00;3.00;;;;;;;;5060488;28;45414;-77
2024/02/23 10:23:59;;;;;;;;;4.00;3.00;;;;;;;;5060261;28;45890;-76
2024/02/23 10:26:26;;;;;;;;;4.33;3.33;;;;;;;;5059603;28;45253;-75
2024/02/23 10:28:51;;;;;;;;;3.00;2.00;;;;;;;;5059207;28;45367;-76
2024/02/23 10:31:17;;;;;;;;;1.00;1.00;;;;;;;;5060562;28;45284;-75
2024/02/23 10:33:44;;;;;;;;;4.00;3.00;;;;;;;;5058954;28;46545;-76
2024/02/23 10:36:11;;;;;;;;;2.00;2.00;;;;;;;;5055950;28;45793;-75
2024/02/23 10:38:38;;;;;;;;;3.00;1.67;;;;;;;;5056557;28;45343;-75
2024/02/23 10:41:04;;;;;;;;;1.00;1.00;;;;;;;;5060571;28;45294;-75
2024/02/23 10:43:32;;;;;;;;;3.33;2.33;;;;;;;;5059052;28;46167;-75
2024/02/23 10:45:59;;;;;;;;;1.67;1.67;;;;;;;;5060632;28;45350;-75
2024/02/23 10:48:25;;;;;;;;;2.67;2.00;;;;;;;;5060596;28;45315;-76
2024/02/23 10:50:50;;;;;;;;;4.33;1.67;;;;;;;;5058949;28;46738;-77
2024/02/23 10:53:16;;;;;;;;;4.67;2.00;;;;;;;;5059108;28;47070;-77
2024/02/23 10:55:43;;;;;;;;;2.00;1.33;;;;;;;;5060587;28;45452;-78
2024/02/23 10:58:11;;;;;;;;;1.00;1.00;;;;;;;;5075046;28;45211;-77
2024/02/23 11:00:36;;;;;;;;;1.00;1.00;;;;;;;;5079443;28;46076;-76
2024/02/23 11:03:03;;;;;;;;;2.67;2.00;;;;;;;;5080451;27;45224;-75
2024/02/23 11:05:28;;;;;;;;;4.00;1.00;;;;;;;;5080737;27;45328;-75
2024/02/23 11:07:55;;;;;;;;;2.00;2.00;;;;;;;;5080589;28;45346;-76
2024/02/23 11:10:27;;;;;;;;;2.33;2.33;;;;;;;;5078940;28;46473;-75
2024/02/23 11:12:57;;;;;;;;;1.67;1.67;;;;;;;;5080286;27;45387;-75
2024/02/23 11:15:29;;;;;;;;;4.00;3.00;;;;;;;;5080471;27;45351;-76
2024/02/23 11:17:55;;;;;;;;;2.00;1.00;;;;;;;;5079746;28;45313;-76
2024/02/23 11:20:24;;;;;;;;;2.00;2.00;;;;;;;;5078385;28;45477;-75
2024/02/23 11:22:51;;;;;;;;;2.33;2.33;;;;;;;;5080152;27;46156;-75
2024/02/23 11:25:17;;;;;;;;;3.00;3.00;;;;;;;;5078914;28;45384;-75
2024/02/23 11:27:43;;;;;;;;;3.00;3.00;;;;;;;;5080134;27;45301;-75
2024/02/23 11:30:11;;;;;;;;;4.33;3.33;;;;;;;;5079882;27;45397;-75
2024/02/23 11:32:41;;;;;;;;;3.00;1.67;;;;;;;;5078536;28;47435;-75
2024/02/23 11:35:06;;;;;;;;;2.00;2.00;;;;;;;;5078435;28;45658;-75
2024/02/23 11:37:32;;;;;;;;;1.00;1.00;;;;;;;;5078713;28;45376;-75
2024/02/23 11:39:58;;;;;;;;;1.00;1.00;;;;;;;;5080154;27;45286;-77
2024/02/23 11:42:23;;;;;;;;;1.00;1.00;;;;;;;;5078675;28;46962;-76
2024/02/23 11:44:49;;;;;;;;;2.67;2.67;;;;;;;;5078638;28;45803;-75
2024/02/23 11:47:16;;;;;;;;;1.00;1.00;;;;;;;;5078797;28;45371;-76
2024/02/23 11:49:41;;;;;;;;;4.67;2.33;;;;;;;;5080362;27;45326;-76
2024/02/23 11:52:07;;;;;;;;;0.00;0.00;;;;;;;;5080084;27;45416;-75
2024/02/23 11:54:32;;;;;;;;;3.00;3.00;;;;;;;;5080100;27;45385;-76
2024/02/23 11:56:57;;;;;;;;;1.00;1.00;;;;;;;;5076828;28;45354;-77
2024/02/23 11:59:23;;;;;;;;;3.00;3.00;;;;;;;;5060848;28;45520;-75
2024/02/23 12:01:48;;;;;;;;;2.33;2.33;;;;;;;;5060462;28;45291;-76
2024/02/23 12:04:14;;;;;;;;;0.33;0.33;;;;;;;;5058280;28;45385;-77
2024/02/23 12:06:40;;;;;;;;;1.00;1.00;;;;;;;;5059791;28;45224;-77
2024/02/23 12:09:05;;;;;;;;;2.33;2.00;;;;;;;;5058150;28;46376;-77
2024/02/23 12:11:30;;;;;;;;;5.00;5.00;;;;;;;;5058239;28;48631;-77
2024/02/23 12:13:57;;;;;;;;;2.33;2.33;;;;;;;;5058038;28;45613;-77
2024/02/23 12:16:22;;;;;;;;;2.00;2.00;;;;;;;;5055960;28;45308;-76
2024/02/23 12:18:53;;;;;;;;;3.00;2.00;;;;;;;;5055861;28;47168;-76
2024/02/23 12:21:18;;;;;;;;;2.00;1.33;;;;;;;;5057768;28;47219;-77
2024/02/23 12:23:45;;;;;;;;;0.67;0.67;;;;;;;;5060181;28;45244;-77
2024/02/23 12:26:13;;;;;;;;;1.67;1.67;;;;;;;;5058613;28;45385;-77
2024/02/23 12:28:38;;;;;;;;;5.33;3.00;;;;;;;;5076201;28;46042;-78
2024/02/23 12:31:04;;;;;;;;;2.00;2.00;;;;;;;;5082772;27;46265;-78
2024/02/23 12:33:37;;;;;;;;;2.00;1.67;;;;;;;;5084893;27;45283;-76
2024/02/23 12:36:03;;;;;;;;;10.33;9.00;;;;;;;;5086461;27;45418;-76
2024/02/23 12:38:28;;;;;;;;;26.33;24.67;;;;;;;;5082168;28;47499;-75
2024/02/23 12:40:54;;;;;;;;;32.00;31.33;;;;;;;;5080937;28;48092;-76
2024/02/23 12:43:24;;;;;;;;;16.00;16.00;;;;;;;;5081087;28;45372;-77
2024/02/23 12:45:49;;;;;;;;;7.00;6.67;;;;;;;;5069939;28;45178;-77
2024/02/23 12:48:17;;;;;;;;;3.00;3.00;;;;;;;;5062962;28;45298;-76
2024/02/23 12:50:43;;;;;;;;;3.67;2.33;;;;;;;;5062145;28;47084;-75
2024/02/23 12:53:09;;;;;;;;;3.00;2.00;;;;;;;;5063015;28;45349;-75
2024/02/23 12:55:36;;;;;;;;;1.33;1.33;;;;;;;;5063307;28;45473;-77
2024/02/23 12:58:01;;;;;;;;;0.33;0.33;;;;;;;;5076648;28;45346;-75
2024/02/23 13:00:26;;;;;;;;;4.67;4.67;;;;;;;;5081187;28;47161;-75
2024/02/23 13:02:52;;;;;;;;;6.33;6.33;;;;;;;;5082218;27;45195;-76
2024/02/23 13:05:17;;;;;;;;;2.33;2.00;;;;;;;;5084175;27;45357;-77
2024/02/23 13:07:43;;;;;;;;;4.67;4.33;;;;;;;;5082453;28;45901;-77
2024/02/23 13:10:08;;;;;;;;;5.00;4.67;;;;;;;;5084015;28;47443;-77
2024/02/23 13:12:33;;;;;;;;;5.67;5.67;;;;;;;;5079780;28;45370;-77
2024/02/23 13:14:59;;;;;;;;;3.67;2.33;;;;;;;;5085156;28;45254;-77
2024/02/23 13:17:24;;;;;;;;;1.67;1.67;;;;;;;;5076881;28;46263;-77
2024/02/23 13:19:49;;;;;;;;;2.00;2.00;;;;;;;;5062039;28;47215;-76
2024/02/23 13:22:14;;;;;;;;;2.00;1.33;;;;;;;;5061570;28;45917;-77
2024/02/23 13:24:40;;;;;;;;;0.00;0.00;;;;;;;;5061985;28;45308;-76
2024/02/23 13:27:05;;;;;;;;;1.00;0.67;;;;;;;;5060772;28;46144;-76
2024/02/23 13:29:30;;;;;;;;;2.00;0.00;;;;;;;;5061606;28;46255;-76
2024/02/23 13:31:55;;;;;;;;;5.33;5.33;;;;;;;;5061055;28;45351;-76
2024/02/23 13:34:21;;;;;;;;;1.00;1.00;;;;;;;;5061839;28;45338;-76
2024/02/23 13:36:46;;;;;;;;;5.00;5.00;;;;;;;;5061763;28;45298;-76
2024/02/23 13:39:12;;;;;;;;;1.00;1.00;;;;;;;;5061624;28;45338;-75
2024/02/23 13:41:37;;;;;;;;;12.00;12.00;;;;;;;;5059413;28;45759;-76
2024/02/23 13:44:04;;;;;;;;;4.00;4.00;;;;;;;;5061296;28;45406;-75
2024/02/23 13:46:29;;;;;;;;;7.33;6.00;;;;;;;;5061316;28;45439;-75
2024/02/23 13:49:05;;;;;;;;;3.33;3.33;;;;;;;;5061252;28;45330;-74
2024/02/23 13:51:30;;;;;;;;;1.00;1.00;;;;;;;;5061433;28;45338;-75
2024/02/23 13:53:56;;;;;;;;;6.00;4.00;;;;;;;;5060145;28;45342;-75
2024/02/23 13:56:21;;;;;;;;;4.00;3.33;;;;;;;;5059967;28;46492;-76
2024/02/23 13:58:48;;;;;;;;;11.33;11.33;;;;;;;;5078101;28;45405;-76
2024/02/23 14:01:13;;;;;;;;;1.00;1.00;;;;;;;;5062392;28;45223;-77
2024/02/23 14:03:38;;;;;;;;;1.33;1.33;;;;;;;;5061542;28;45259;-76
2024/02/23 14:06:03;;;;;;;;;1.00;1.00;;;;;;;;5060501;28;45404;-76
2024/02/23 14:08:28;;;;;;;;;1.00;1.00;;;;;;;;5059799;28;47475;-77
2024/02/23 14:10:54;;;;;;;;;1.67;1.67;;;;;;;;5060954;28;45726;-76
2024/02/23 14:13:19;;;;;;;;;3.00;2.00;;;;;;;;5061309;28;45219;-76
2024/02/23 14:15:45;;;;;;;;;0.00;0.00;;;;;;;;5060944;28;45343;-77
2024/02/23 14:18:10;;;;;;;;;1.00;1.00;;;;;;;;5060747;28;45786;-76
2024/02/23 14:20:35;;;;;;;;;0.75;0.75;;;;;;;;5059359;28;45365;-75
2024/02/23 14:23:00;;;;;;;;;3.00;3.00;;;;;;;;5061241;28;45228;-76
2024/02/23 14:25:26;;;;;;;;;0.00;0.00;;;;;;;;5059967;28;45414;-76
2024/02/23 14:27:51;;;;;;;;;2.00;2.00;;;;;;;;5060692;28;45451;-76
2024/02/23 14:30:16;;;;;;;;;0.50;0.25;;;;;;;;5060750;28;45354;-76
2024/02/23 14:32:42;;;;;;;;;3.75;2.75;;;;;;;;5061103;28;45280;-76